Time;durP1;ratioP1;P1;durP2;ratioP2;P2;SDS_P1;SDS_P2;PMS_P1;PMS_P2;Temp;Humidity;BMP_temperature;BMP_pressure;BME280_temperature;BME280_humidity;BME280_pressure;Samples;Min_cycle;Max_cycle;Signal;HPM_P1;HPM_P2
2021/09/19 00:01:58;;;;;;;16.38;6.45;;;;;;;8.98;49.59;99832.75;5043724;28;20056;-73
2021/09/19 00:04:24;;;;;;;;;;;;;;;8.99;49.45;99834.38;5036939;28;20115;-73
2021/09/19 00:06:50;;;;;;;15.55;5.65;;;;;;;8.91;49.68;99830.25;5043250;28;20203;-73
2021/09/19 00:09:16;;;;;;;14.48;5.55;;;;;;;8.94;49.38;99827.81;5048084;28;20059;-74
2021/09/19 00:11:43;;;;;;;14.38;6.40;;;;;;;8.74;49.68;99809.41;5051713;28;20156;-73
2021/09/19 00:14:10;;;;;;;14.43;6.18;;;;;;;8.76;49.88;99837.25;5051444;28;20608;-74
2021/09/19 00:16:36;;;;;;;14.77;5.18;;;;;;;8.81;49.96;99831.00;5052482;28;20045;-72
2021/09/19 00:19:03;;;;;;;14.75;6.03;;;;;;;8.73;50.12;99831.47;5053300;28;20057;-73
2021/09/19 00:21:29;;;;;;;12.38;5.35;;;;;;;8.79;49.94;99833.97;5052763;28;20068;-73
2021/09/19 00:23:55;;;;;;;12.35;5.53;;;;;;;8.73;49.78;99829.59;5049607;28;20099;-73
2021/09/19 00:26:21;;;;;;;13.80;5.68;;;;;;;8.83;49.65;99841.66;5052946;28;20463;-75
2021/09/19 00:28:47;;;;;;;14.48;5.55;;;;;;;8.71;50.06;99837.22;5052653;28;20061;-73
2021/09/19 00:31:13;;;;;;;12.60;5.85;;;;;;;8.72;49.92;99843.47;5052352;28;20509;-75
2021/09/19 00:33:39;;;;;;;13.32;5.68;;;;;;;8.74;49.72;99842.13;5049484;28;20069;-73
2021/09/19 00:36:06;;;;;;;11.88;5.15;;;;;;;8.77;49.65;99843.53;5053192;28;20051;-74
2021/09/19 00:38:32;;;;;;;13.43;5.80;;;;;;;8.69;49.63;99844.84;5051712;28;20517;-74
2021/09/19 00:40:58;;;;;;;14.80;5.65;;;;;;;8.62;50.04;99845.06;5043836;28;20099;-74
2021/09/19 00:43:24;;;;;;;13.27;5.47;;;;;;;8.71;49.75;99848.13;5051456;28;20111;-74
2021/09/19 00:45:50;;;;;;;17.40;5.72;;;;;;;8.71;49.73;99837.22;5050430;28;20052;-73
2021/09/19 00:48:16;;;;;;;18.45;5.85;;;;;;;8.60;49.74;99844.50;5048084;28;20429;-75
2021/09/19 00:50:42;;;;;;;13.25;5.90;;;;;;;8.51;49.99;99841.44;5045687;28;20517;-74
2021/09/19 00:53:11;;;;;;;15.35;5.55;;;;;;;8.56;49.97;99839.81;5049466;28;20259;-75
2021/09/19 00:55:38;;;;;;;13.13;5.05;;;;;;;8.44;50.27;99835.34;5044537;28;20424;-72
2021/09/19 00:58:10;;;;;;;15.38;5.72;;;;;;;8.53;50.10;99837.63;5040541;28;20060;-73
2021/09/19 01:00:38;;;;;;;18.20;5.35;;;;;;;8.57;49.44;99841.47;5048080;28;20055;-73
2021/09/19 01:03:05;;;;;;;12.27;5.28;;;;;;;8.50;49.79;99836.22;5044268;28;20085;-73
2021/09/19 01:05:31;;;;;;;19.33;5.95;;;;;;;8.57;49.67;99845.00;5051098;28;20134;-73
2021/09/19 01:07:58;;;;;;;16.00;5.55;;;;;;;8.57;49.45;99834.09;5030406;28;20483;-73
2021/09/19 01:10:26;;;;;;;16.55;6.28;;;;;;;8.48;49.81;99838.38;5047819;28;20104;-72
2021/09/19 01:12:53;;;;;;;13.85;5.60;;;;;;;8.45;49.77;99834.25;5041983;28;20049;-74
2021/09/19 01:15:19;;;;;;;;;;;;;;;8.46;49.84;99829.63;5052332;28;20053;-73
2021/09/19 01:17:45;;;;;;;16.92;5.30;;;;;;;8.37;49.89;99835.53;5050869;28;19932;-74
2021/09/19 01:20:15;;;;;;;11.98;5.15;;;;;;;8.40;50.05;99831.50;5051367;28;20481;-73
2021/09/19 01:22:43;;;;;;;16.17;5.53;;;;;;;8.38;49.97;99825.47;5050401;28;20067;-74
2021/09/19 01:25:15;;;;;;;22.55;5.35;;;;;;;8.38;50.09;99820.03;5052189;28;20049;-73
2021/09/19 01:27:43;;;;;;;12.73;5.50;;;;;;;8.43;49.86;99830.97;5051484;28;20517;-74
2021/09/19 01:30:11;;;;;;;16.00;6.05;;;;;;;8.37;50.03;99818.38;5045038;28;20523;-73
2021/09/19 01:32:40;;;;;;;15.85;5.72;;;;;;;8.33;49.86;99812.63;5050368;28;20704;-74
2021/09/19 01:35:08;;;;;;;27.13;6.35;;;;;;;8.27;50.02;99804.66;5051930;28;20140;-74
2021/09/19 01:37:34;;;;;;;13.38;5.75;;;;;;;8.39;49.85;99816.22;5051297;28;20114;-74
2021/09/19 01:40:00;;;;;;;16.90;5.57;;;;;;;8.29;49.91;99802.50;5026862;28;20468;-73
2021/09/19 01:42:27;;;;;;;13.68;5.30;;;;;;;8.33;50.00;99795.44;5049874;28;20417;-74
2021/09/19 01:44:53;;;;;;;16.60;5.18;;;;;;;8.31;50.01;99795.72;5049975;28;20040;-74
2021/09/19 01:47:19;;;;;;;14.52;5.82;;;;;;;8.37;49.77;99802.84;5050843;28;20059;-74
2021/09/19 01:49:46;;;;;;;12.40;5.25;;;;;;;8.42;49.67;99803.97;5033646;28;20061;-74
2021/09/19 01:52:12;;;;;;;34.20;7.07;;;;;;;8.33;49.93;99798.19;5049592;28;20051;-73
2021/09/19 01:54:38;;;;;;;18.75;5.68;;;;;;;8.27;50.08;99796.50;5065521;28;20053;-74
2021/09/19 01:57:04;;;;;;;15.88;5.10;;;;;;;8.36;49.83;99792.22;5044561;28;20151;-74
2021/09/19 01:59:32;;;;;;;15.90;5.65;;;;;;;8.32;50.00;99794.66;5050868;28;20136;-74
2021/09/19 02:01:58;;;;;;;18.25;5.68;;;;;;;8.28;50.26;99788.09;5051293;28;20077;-73
2021/09/19 02:04:24;;;;;;;17.27;5.80;;;;;;;8.35;49.62;99793.28;5062550;28;20067;-73
2021/09/19 02:06:50;;;;;;;17.15;5.78;;;;;;;8.29;50.00;99795.16;5051353;28;20059;-73
2021/09/19 02:09:16;;;;;;;20.08;6.15;;;;;;;8.35;49.89;99779.66;5050023;28;20052;-73
2021/09/19 02:11:42;;;;;;;13.73;5.32;;;;;;;8.30;49.88;99772.28;5048275;28;20053;-74
2021/09/19 02:14:08;;;;;;;15.80;5.70;;;;;;;8.32;49.85;99775.56;5027566;28;20432;-74
2021/09/19 02:16:35;;;;;;;15.45;5.88;;;;;;;8.28;49.83;99770.91;5051756;28;20059;-73
2021/09/19 02:19:01;;;;;;;15.80;6.15;;;;;;;8.24;49.84;99778.75;5043544;28;20052;-74
2021/09/19 02:21:27;;;;;;;14.95;5.97;;;;;;;8.29;49.63;99778.00;5064722;28;20049;-72
2021/09/19 02:23:53;;;;;;;15.75;6.18;;;;;;;8.29;49.68;99776.09;5051314;28;20052;-74
2021/09/19 02:26:19;;;;;;;14.85;5.32;;;;;;;8.20;49.91;99774.91;5050982;28;20143;-73
2021/09/19 02:28:45;;;;;;;14.60;5.60;;;;;;;8.25;49.59;99774.94;5051337;28;20075;-74
2021/09/19 02:31:11;;;;;;;14.25;6.47;;;;;;;8.26;49.75;99773.88;5050580;28;20056;-73
2021/09/19 02:33:39;;;;;;;17.33;6.75;;;;;;;8.22;49.77;99773.59;5051179;28;20574;-74
2021/09/19 02:36:05;;;;;;;17.90;7.03;;;;;;;8.29;49.60;99783.44;5040606;28;20096;-74
2021/09/19 02:38:31;;;;;;;16.23;6.75;;;;;;;8.28;49.74;99781.78;5031348;28;20103;-73
2021/09/19 02:40:57;;;;;;;21.80;8.77;;;;;;;8.32;49.60;99778.31;5025149;28;20416;-73
2021/09/19 02:43:23;;;;;;;24.00;8.40;;;;;;;8.32;49.53;99780.19;5050098;28;20053;-74
2021/09/19 02:45:50;;;;;;;20.48;7.13;;;;;;;8.32;49.50;99781.03;5058827;28;20061;-73
2021/09/19 02:48:16;;;;;;;21.33;7.75;;;;;;;8.22;49.68;99773.59;5048918;28;20067;-75
2021/09/19 02:50:44;;;;;;;22.50;7.78;;;;;;;8.27;49.83;99775.50;5051837;28;20111;-75
2021/09/19 02:53:10;;;;;;;17.25;7.32;;;;;;;8.08;49.90;99761.47;5053252;28;20048;-74
2021/09/19 02:55:36;;;;;;;22.15;8.68;;;;;;;8.17;50.23;99781.69;5054377;28;20063;-73
2021/09/19 02:58:02;;;;;;;17.00;7.18;;;;;;;7.95;50.62;99774.44;5054745;28;20049;-74
2021/09/19 03:00:28;;;;;;;19.63;7.60;;;;;;;8.02;50.56;99776.94;5053740;28;20053;-74
2021/09/19 03:02:54;;;;;;;17.02;7.35;;;;;;;8.03;50.56;99781.31;5053277;28;20144;-74
2021/09/19 03:05:20;;;;;;;22.38;8.50;;;;;;;8.16;50.28;99779.25;5054941;28;20057;-73
2021/09/19 03:07:48;;;;;;;19.15;7.22;;;;;;;8.12;50.30;99776.22;5045288;28;20064;-74
2021/09/19 03:10:14;;;;;;;18.00;7.28;;;;;;;8.14;50.36;99771.31;5032507;28;20056;-74
2021/09/19 03:12:41;;;;;;;18.88;7.63;;;;;;;8.22;50.31;99762.69;5053605;28;20051;-73
2021/09/19 03:15:08;;;;;;;18.90;7.18;;;;;;;8.00;50.64;99764.66;5054482;28;20061;-73
2021/09/19 03:17:34;;;;;;;17.60;6.97;;;;;;;8.03;50.71;99775.88;5054498;28;20064;-74
2021/09/19 03:20:00;;;;;;;16.67;7.20;;;;;;;8.08;50.65;99758.75;5046149;28;20052;-73
2021/09/19 03:22:26;;;;;;;20.15;6.72;;;;;;;8.12;50.54;99770.78;5052280;28;20049;-74
2021/09/19 03:24:54;;;;;;;20.40;7.55;;;;;;;8.11;50.46;99762.84;5045731;28;20533;-73
2021/09/19 03:27:19;;;;;;;19.20;7.05;;;;;;;7.99;50.85;99766.59;5052434;28;20049;-74
2021/09/19 03:29:46;;;;;;;17.02;6.85;;;;;;;8.14;50.42;99765.88;5052919;28;20084;-74
2021/09/19 03:32:12;;;;;;;23.52;7.53;;;;;;;8.07;50.68;99763.38;5053218;28;20067;-73
2021/09/19 03:34:38;;;;;;;19.00;7.13;;;;;;;8.00;50.89;99764.66;5051994;28;20053;-74
2021/09/19 03:37:04;;;;;;;17.30;7.05;;;;;;;8.05;50.80;99767.47;5047067;28;20068;-74
2021/09/19 03:39:30;;;;;;;17.95;7.32;;;;;;;8.06;50.88;99763.66;5053355;28;20539;-74
2021/09/19 03:41:57;;;;;;;19.25;7.50;;;;;;;8.04;50.85;99766.63;5053766;28;20056;-74
2021/09/19 03:44:23;;;;;;;19.10;7.72;;;;;;;8.06;50.63;99766.38;5052811;28;20152;-75
2021/09/19 03:46:49;;;;;;;19.55;7.50;;;;;;;8.08;50.75;99775.91;5044799;28;20495;-75
2021/09/19 03:49:15;;;;;;;23.95;7.90;;;;;;;8.09;50.82;99766.66;5053271;28;20114;-75
2021/09/19 03:51:41;;;;;;;20.63;7.15;;;;;;;8.09;50.74;99765.84;5053009;28;20053;-74
2021/09/19 03:54:07;;;;;;;18.75;7.20;;;;;;;8.08;50.77;99773.19;5053947;28;20056;-74
2021/09/19 03:56:33;;;;;;;25.15;7.70;;;;;;;8.07;50.83;99766.09;5050254;28;20512;-75
2021/09/19 03:59:00;;;;;;;18.10;7.80;;;;;;;8.13;50.72;99775.13;5053673;28;20053;-74
2021/09/19 04:01:26;;;;;;;24.77;8.45;;;;;;;8.06;50.84;99766.38;5053719;28;20106;-75
2021/09/19 04:03:52;;;;;;;25.73;7.80;;;;;;;7.97;50.92;99762.47;5041898;28;20459;-75
2021/09/19 04:06:18;;;;;;;19.85;7.72;;;;;;;8.03;51.05;99767.69;5067166;28;20065;-75
2021/09/19 04:08:44;;;;;;;20.13;7.50;;;;;;;8.13;50.94;99777.06;5016488;28;20096;-75
2021/09/19 04:11:10;;;;;;;20.65;7.95;;;;;;;8.16;50.92;99779.25;5034089;28;20049;-75
2021/09/19 04:13:36;;;;;;;17.42;7.50;;;;;;;8.16;50.96;99776.53;5049505;28;20045;-75
2021/09/19 04:16:04;;;;;;;19.95;7.70;;;;;;;8.17;51.29;99786.34;5053672;28;20390;-75
2021/09/19 04:18:30;;;;;;;21.83;7.65;;;;;;;8.13;51.23;99783.31;5052423;28;20060;-74
2021/09/19 04:20:56;;;;;;;26.27;8.18;;;;;;;8.16;51.26;99781.97;5045145;28;20413;-74
2021/09/19 04:23:25;;;;;;;24.20;8.20;;;;;;;8.03;51.39;99775.88;5050080;28;20107;-74
2021/09/19 04:25:51;;;;;;;25.17;9.90;;;;;;;8.13;51.33;99788.75;5053425;28;20061;-74
2021/09/19 04:28:18;;;;;;;25.55;7.75;;;;;;;8.15;51.03;99788.50;5047221;28;20056;-75
2021/09/19 04:30:44;;;;;;;32.38;8.18;;;;;;;8.16;51.36;99780.06;5052135;28;20096;-74
2021/09/19 04:33:12;;;;;;;19.40;7.38;;;;;;;8.09;51.44;99772.09;5045781;28;20045;-72
2021/09/19 04:35:38;;;;;;;24.65;8.25;;;;;;;8.20;51.26;99769.47;5052956;28;20126;-73
2021/09/19 04:38:04;;;;;;;32.15;7.85;;;;;;;8.12;51.51;99780.84;5052329;28;20052;-73
2021/09/19 04:40:30;;;;;;;23.05;7.95;;;;;;;8.09;51.82;99782.19;5049585;28;20053;-73
2021/09/19 04:42:56;;;;;;;18.20;7.75;;;;;;;8.16;51.44;99787.44;5051572;28;20048;-72
2021/09/19 04:45:22;;;;;;;22.58;7.20;;;;;;;8.06;51.74;99783.50;5045687;28;20060;-73
2021/09/19 04:47:48;;;;;;;18.67;6.88;;;;;;;8.13;51.67;99794.19;5042769;28;20521;-75
2021/09/19 04:50:15;;;;;;;19.58;7.93;;;;;;;8.09;51.82;99779.47;5018326;28;20059;-73
2021/09/19 04:52:42;;;;;;;19.38;7.90;;;;;;;8.14;51.76;99789.59;5050586;28;20049;-73
2021/09/19 04:55:09;;;;;;;18.70;8.38;;;;;;;8.13;51.78;99791.47;5043129;28;20049;-73
2021/09/19 04:57:35;;;;;;;19.35;8.02;;;;;;;8.07;51.74;99781.63;5034296;28;20588;-74
2021/09/19 05:00:02;;;;;;;26.33;7.90;;;;;;;8.13;51.99;99787.94;5044370;28;20085;-73
2021/09/19 05:02:28;;;;;;;20.60;8.32;;;;;;;8.11;52.06;99787.34;5066699;28;20651;-74
2021/09/19 05:04:54;;;;;;;16.90;7.32;;;;;;;8.15;51.90;99789.31;5041912;28;20206;-73
2021/09/19 05:07:21;;;;;;;17.92;7.20;;;;;;;8.19;51.96;99786.91;5052247;28;20147;-74
2021/09/19 05:09:48;;;;;;;19.23;6.70;;;;;;;8.25;51.67;99788.56;5051685;28;20084;-72
2021/09/19 05:12:14;;;;;;;17.98;7.35;;;;;;;8.31;51.46;99775.81;5030725;28;20053;-73
2021/09/19 05:14:40;;;;;;;19.42;7.75;;;;;;;8.28;51.55;99781.78;5043704;28;20071;-72
2021/09/19 05:17:06;;;;;;;17.42;7.45;;;;;;;8.26;51.79;99778.50;5051228;28;20041;-73
2021/09/19 05:19:32;;;;;;;21.70;7.78;;;;;;;8.32;51.63;99782.91;5050821;28;20053;-74
2021/09/19 05:21:58;;;;;;;19.10;8.63;;;;;;;8.20;51.68;99761.31;5042834;28;20079;-73
2021/09/19 05:24:25;;;;;;;18.60;7.40;;;;;;;8.17;51.69;99762.63;5050797;28;20045;-73
2021/09/19 05:26:51;;;;;;;20.33;7.78;;;;;;;8.32;51.71;99775.56;5038256;28;20480;-74
2021/09/19 05:29:17;;;;;;;19.00;7.78;;;;;;;8.37;51.53;99786.50;5006927;28;20049;-72
2021/09/19 05:31:43;;;;;;;20.10;7.95;;;;;;;8.30;51.78;99788.63;5051751;28;20461;-74
2021/09/19 05:34:10;;;;;;;17.02;7.57;;;;;;;8.41;51.52;99786.81;5043262;28;20049;-75
2021/09/19 05:36:36;;;;;;;20.55;7.90;;;;;;;8.41;51.45;99772.34;5049872;28;20059;-74
2021/09/19 05:39:02;;;;;;;20.30;8.15;;;;;;;8.31;51.29;99756.75;5043115;28;20053;-75
2021/09/19 05:41:31;;;;;;;24.67;7.65;;;;;;;8.50;51.40;99777.09;5048822;28;20513;-74
2021/09/19 05:43:57;;;;;;;19.75;8.02;;;;;;;8.49;51.39;99782.78;5049640;28;20118;-74
2021/09/19 05:46:23;;;;;;;24.00;8.27;;;;;;;8.58;51.17;99775.78;5039395;28;20482;-74
2021/09/19 05:48:49;;;;;;;20.23;8.88;;;;;;;8.48;51.15;99765.59;5034601;28;20060;-75
2021/09/19 05:51:15;;;;;;;24.65;8.45;;;;;;;8.55;51.42;99770.84;5024505;28;20049;-74
2021/09/19 05:53:42;;;;;;;21.08;8.27;;;;;;;8.58;51.40;99786.69;5044855;28;20092;-74
2021/09/19 05:56:08;;;;;;;26.10;7.93;;;;;;;8.51;51.60;99786.09;5021840;28;20064;-73
2021/09/19 05:58:35;;;;;;;19.10;7.57;;;;;;;8.56;51.48;99783.41;5033268;28;20488;-74
2021/09/19 06:01:02;;;;;;;22.58;8.20;;;;;;;8.58;51.57;99783.94;5051580;28;20065;-75
2021/09/19 06:03:28;;;;;;;19.83;7.68;;;;;;;8.50;51.74;99779.00;5051130;28;20618;-74
2021/09/19 06:05:54;;;;;;;24.00;8.02;;;;;;;8.56;51.47;99775.22;5042922;28;20144;-75
2021/09/19 06:08:20;;;;;;;20.00;7.85;;;;;;;8.55;51.54;99772.78;5051480;28;20243;-74
2021/09/19 06:10:46;;;;;;;24.92;8.82;;;;;;;8.67;51.02;99769.84;5051729;28;20068;-75
2021/09/19 06:13:12;;;;;;;29.45;8.23;;;;;;;8.62;51.31;99776.06;5062296;28;20056;-75
2021/09/19 06:15:39;;;;;;;31.27;7.82;;;;;;;8.66;51.19;99774.47;5048857;28;20417;-73
2021/09/19 06:18:05;;;;;;;;;;;;;;;8.61;51.15;99778.00;5034578;28;20057;-74
2021/09/19 06:20:35;;;;;;;24.55;8.10;;;;;;;8.69;51.00;99762.22;5038034;28;19939;-73
2021/09/19 06:23:00;;;;;;;19.25;7.18;;;;;;;8.58;51.01;99769.53;5036308;28;20049;-74
2021/09/19 06:25:26;;;;;;;23.88;7.50;;;;;;;8.68;50.93;99772.31;5045627;28;20045;-74
2021/09/19 06:27:52;;;;;;;27.15;8.23;;;;;;;8.67;50.76;99767.97;5043931;28;20053;-74
2021/09/19 06:30:18;;;;;;;25.45;7.90;;;;;;;8.69;50.89;99771.25;5043650;28;20582;-74
2021/09/19 06:32:46;;;;;;;23.10;8.30;;;;;;;8.74;51.00;99768.53;5027474;28;20144;-75
2021/09/19 06:35:12;;;;;;;;;;;;;;;8.76;50.98;99760.91;5049284;28;20049;-75
2021/09/19 06:37:38;;;;;;;21.20;7.35;;;;;;;8.77;50.76;99759.00;5071159;28;19931;-74
2021/09/19 06:40:05;;;;;;;34.33;8.18;;;;;;;8.74;50.99;99756.78;5054945;28;20436;-74
2021/09/19 06:42:31;;;;;;;26.23;7.72;;;;;;;8.73;51.07;99764.16;5066823;28;20072;-75
2021/09/19 06:44:57;;;;;;;23.10;7.78;;;;;;;8.78;50.83;99758.72;5055616;28;20512;-76
2021/09/19 06:47:23;;;;;;;27.75;8.23;;;;;;;8.83;50.70;99757.94;5067615;28;20071;-74
2021/09/19 06:49:52;;;;;;;28.05;10.10;;;;;;;8.83;50.84;99765.31;5045878;28;20056;-74
2021/09/19 06:52:18;;;;;;;20.63;7.65;;;;;;;8.88;50.84;99760.69;5070631;28;20107;-73
2021/09/19 06:54:44;;;;;;;18.63;8.35;;;;;;;8.91;50.91;99759.34;5054483;28;20440;-73
2021/09/19 06:57:10;;;;;;;17.70;7.45;;;;;;;8.91;50.89;99757.47;5055165;28;20052;-75
2021/09/19 06:59:36;;;;;;;24.17;7.68;;;;;;;8.75;50.91;99748.38;5068876;28;20081;-74
2021/09/19 07:02:03;;;;;;;20.35;7.55;;;;;;;8.77;51.14;99739.94;5047066;28;20139;-73
2021/09/19 07:04:29;;;;;;;32.40;8.30;;;;;;;8.87;51.10;99748.16;5054669;28;20088;-75
2021/09/19 07:06:56;;;;;;;51.75;8.05;;;;;;;8.94;50.70;99743.28;5063184;28;20107;-74
2021/09/19 07:09:22;;;;;;;31.25;7.82;;;;;;;8.89;51.04;99748.69;5053618;28;20073;-75
2021/09/19 07:11:48;;;;;;;21.35;7.47;;;;;;;8.89;51.09;99759.59;5046101;28;20482;-74
2021/09/19 07:14:14;;;;;;;23.77;7.93;;;;;;;8.92;51.01;99758.25;5054173;28;20056;-75
2021/09/19 07:16:40;;;;;;;37.05;9.85;;;;;;;9.06;50.96;99761.34;5070105;28;20080;-74
2021/09/19 07:19:06;;;;;;;25.10;7.35;;;;;;;9.14;50.61;99749.13;5055840;28;20055;-72
2021/09/19 07:21:32;;;;;;;21.38;7.97;;;;;;;9.08;50.73;99748.25;5053214;28;20059;-75
2021/09/19 07:24:00;;;;;;;25.95;8.80;;;;;;;9.14;50.45;99752.66;5056125;28;20052;-76
2021/09/19 07:26:26;;;;;;;;;;;;;;;9.15;50.63;99742.56;5057184;28;20555;-74
2021/09/19 07:28:52;;;;;;;41.08;8.88;;;;;;;9.15;50.54;99754.28;5046093;28;19929;-73
2021/09/19 07:31:18;;;;;;;25.85;8.30;;;;;;;9.23;50.48;99739.31;5051530;28;20187;-73
2021/09/19 07:33:44;;;;;;;26.00;7.60;;;;;;;9.26;50.34;99741.50;5063770;28;20056;-73
2021/09/19 07:36:11;;;;;;;30.27;8.98;;;;;;;9.30;50.30;99737.16;5060191;28;20611;-74
2021/09/19 07:38:37;;;;;;;35.08;8.30;;;;;;;9.27;50.17;99718.59;5065439;28;20104;-75
2021/09/19 07:41:05;;;;;;;19.38;7.82;;;;;;;9.24;50.47;99730.03;5067171;28;20049;-74
2021/09/19 07:44:04;;;;;;;;;;;;;;;9.22;50.72;99724.03;5072852;28;20479;-72
2021/09/19 07:46:36;;;;;;;27.85;8.23;;;;;;;9.26;50.43;99730.59;4977744;28;20402;-73
2021/09/19 07:49:03;;;;;;;31.00;7.95;;;;;;;9.33;50.15;99701.16;4972860;28;20054;-73
2021/09/19 07:51:31;;;;;;;46.88;9.35;;;;;;;9.26;50.71;99713.41;5010655;28;20045;-73
2021/09/19 07:53:59;;;;;;;30.90;7.57;;;;;;;9.34;50.44;99719.16;5044916;28;20437;-74
2021/09/19 07:56:26;;;;;;;24.02;7.90;;;;;;;9.42;50.15;99706.06;5050363;28;20103;-74
2021/09/19 07:58:52;;;;;;;;;;;;;;;9.43;50.24;99714.00;5045686;28;20053;-74
2021/09/19 08:01:18;;;;;;;30.30;8.23;;;;;;;9.47;50.03;99700.66;5050516;28;19978;-73
2021/09/19 08:03:44;;;;;;;28.23;7.78;;;;;;;9.40;50.31;99694.59;5052067;28;20517;-74
2021/09/19 08:06:10;;;;;;;21.25;6.88;;;;;;;9.47;50.22;99709.63;5046239;28;20060;-73
2021/09/19 08:08:36;;;;;;;32.00;7.68;;;;;;;9.48;50.25;99685.91;5052958;28;20466;-75
2021/09/19 08:11:02;;;;;;;32.97;7.57;;;;;;;9.54;49.91;99703.13;5044655;28;20057;-75
2021/09/19 08:13:29;;;;;;;26.75;7.15;;;;;;;9.17;50.07;99644.91;5051269;28;20063;-74
2021/09/19 08:15:55;;;;;;;;;;;;;;;9.47;49.79;99703.38;5043637;28;20058;-74
2021/09/19 08:18:21;;;;;;;31.38;7.07;;;;;;;9.46;49.94;99708.00;5066939;28;19936;-73
2021/09/19 08:20:47;;;;;;;20.15;7.30;;;;;;;9.49;50.08;99684.81;5042343;28;20056;-74
2021/09/19 08:23:13;;;;;;;28.92;6.80;;;;;;;9.47;49.96;99696.00;5051795;28;20048;-76
2021/09/19 08:25:39;;;;;;;21.58;7.18;;;;;;;9.51;50.01;99694.34;5051936;28;20072;-73
2021/09/19 08:28:05;;;;;;;27.13;7.50;;;;;;;9.52;49.81;99697.91;5044752;28;20087;-74
2021/09/19 08:30:32;;;;;;;33.42;7.03;;;;;;;9.50;49.71;99703.63;5032364;28;193447;-72
2021/09/19 08:36:13;;;;;;;25.85;6.50;;;;;;;9.48;49.56;99689.44;5027350;28;20083;-71
2021/09/19 08:38:39;;;;;;;20.90;6.72;;;;;;;9.55;49.58;99699.28;5051943;28;20079;-72
2021/09/19 08:41:05;;;;;;;23.05;7.20;;;;;;;9.54;49.45;99698.47;5053254;28;20512;-74
2021/09/19 08:43:31;;;;;;;25.70;6.07;;;;;;;9.55;49.28;99704.75;5052121;28;20106;-72
2021/09/19 08:45:58;;;;;;;21.40;6.68;;;;;;;9.61;49.26;99709.94;5034533;28;20155;-73
2021/09/19 08:48:25;;;;;;;23.45;6.88;;;;;;;9.60;49.18;99708.31;5053597;28;20060;-73
2021/09/19 08:50:53;;;;;;;29.10;6.70;;;;;;;9.59;49.24;99714.03;5035194;28;20057;-74
2021/09/19 08:53:19;;;;;;;;;;;;;;;9.65;49.16;99697.38;5053551;28;20060;-74
2021/09/19 08:55:46;;;;;;;20.33;6.57;;;;;;;9.66;49.07;99703.66;5052640;28;20031;-75
2021/09/19 08:58:12;;;;;;;40.97;7.45;;;;;;;9.61;49.09;99707.22;5036226;28;20063;-75
2021/09/19 09:00:40;;;;;;;21.08;6.50;;;;;;;9.57;49.18;99705.28;5033788;28;20053;-75
2021/09/19 09:03:12;;;;;;;21.02;6.70;;;;;;;9.67;49.02;99705.28;5051962;28;20087;-73
2021/09/19 09:05:38;;;;;;;21.10;6.93;;;;;;;9.73;48.97;99715.16;5033346;28;20126;-74
2021/09/19 09:08:06;;;;;;;21.45;7.00;;;;;;;9.70;48.66;99709.41;5052892;28;20467;-76
2021/09/19 09:10:35;;;;;;;19.17;6.85;;;;;;;9.58;48.75;99704.19;5052341;28;20404;-73
2021/09/19 09:13:03;;;;;;;27.75;7.65;;;;;;;9.61;48.98;99699.03;5037498;28;20087;-72
2021/09/19 09:15:33;;;;;;;;;;;;;;;9.60;48.84;99704.75;5052044;28;20065;-72
2021/09/19 09:18:04;;;;;;;20.33;6.75;;;;;;;9.44;48.95;99702.00;5052457;28;19924;-74
2021/09/19 09:20:52;;;;;;;27.60;6.88;;;;;;;9.62;48.85;99721.66;5029069;28;20056;-73
2021/09/19 09:23:30;;;;;;;21.85;6.60;;;;;;;9.61;48.93;99715.41;5042483;28;20095;-75
2021/09/19 09:26:14;;;;;;;21.35;6.82;;;;;;;9.67;48.98;99710.75;5050547;28;20052;-74
2021/09/19 09:28:42;;;;;;;18.90;7.10;;;;;;;9.66;48.91;99703.66;5051190;28;20053;-74
2021/09/19 09:31:09;;;;;;;27.75;7.43;;;;;;;9.69;48.96;99711.31;5027461;28;20052;-72
2021/09/19 09:33:35;;;;;;;24.33;6.72;;;;;;;9.72;48.94;99718.97;5050456;28;20065;-74
2021/09/19 09:36:08;;;;;;;24.73;6.95;;;;;;;9.69;48.82;99714.06;5051566;28;20159;-73
2021/09/19 09:38:35;;;;;;;20.33;7.68;;;;;;;9.68;48.86;99709.69;5033948;28;20076;-73
2021/09/19 09:41:01;;;;;;;23.63;7.68;;;;;;;9.70;48.84;99712.97;5030850;28;20053;-73
2021/09/19 09:43:29;;;;;;;23.13;6.70;;;;;;;9.66;48.96;99690.00;5045762;28;20052;-74
2021/09/19 09:46:08;;;;;;;25.08;6.50;;;;;;;9.63;49.01;99715.13;5050532;28;20099;-74
2021/09/19 09:48:40;;;;;;;22.00;6.63;;;;;;;9.68;49.10;99720.63;5049786;28;20159;-74
2021/09/19 09:51:21;;;;;;;21.08;7.55;;;;;;;9.71;48.98;99711.03;5050189;28;20052;-74
2021/09/19 09:53:57;;;;;;;35.83;9.23;;;;;;;9.74;48.95;99716.78;5046435;28;20052;-72
2021/09/19 09:56:24;;;;;;;22.30;7.37;;;;;;;9.67;49.04;99707.22;5031026;28;20147;-74
2021/09/19 09:58:52;;;;;;;29.05;7.80;;;;;;;9.72;49.09;99704.47;5045822;28;20373;-74
2021/09/19 10:01:19;;;;;;;23.38;7.72;;;;;;;9.56;49.29;99677.16;5049786;28;20057;-73
2021/09/19 10:03:46;;;;;;;24.20;7.70;;;;;;;9.65;49.41;99702.03;5012582;28;20060;-73
2021/09/19 10:06:13;;;;;;;23.55;7.63;;;;;;;9.72;49.18;99702.59;5031290;28;20056;-73
2021/09/19 10:08:41;;;;;;;26.67;7.32;;;;;;;9.62;49.21;99695.22;5020006;28;20131;-73
2021/09/19 10:11:10;;;;;;;20.00;7.43;;;;;;;9.75;49.26;99688.38;5012099;28;20053;-73
2021/09/19 10:13:40;;;;;;;38.85;9.18;;;;;;;9.76;49.28;99694.69;5030923;28;20103;-73
2021/09/19 10:16:07;;;;;;;21.40;6.90;;;;;;;9.81;48.87;99691.09;5047148;28;20073;-74
2021/09/19 10:18:33;;;;;;;22.40;8.45;;;;;;;9.76;48.95;99670.91;5016071;28;20060;-73
2021/09/19 10:21:02;;;;;;;23.02;7.80;;;;;;;9.83;49.16;99673.38;5048579;28;20068;-73
2021/09/19 10:23:30;;;;;;;21.17;8.50;;;;;;;9.87;49.23;99677.19;5010101;28;20045;-73
2021/09/19 10:26:00;;;;;;;25.30;7.95;;;;;;;9.85;49.15;99664.91;5029244;28;20432;-72
2021/09/19 10:28:36;;;;;;;24.60;7.55;;;;;;;9.91;48.94;99672.00;5050623;28;20095;-73
2021/09/19 10:31:22;;;;;;;19.40;6.90;;;;;;;9.90;48.79;99670.38;5050521;28;20084;-73
2021/09/19 10:33:55;;;;;;;30.38;7.75;;;;;;;9.91;48.88;99675.56;5047210;28;20065;-73
2021/09/19 10:36:49;;;;;;;30.05;7.40;;;;;;;9.88;48.93;99662.44;5044402;28;20063;-73
2021/09/19 10:39:28;;;;;;;18.85;6.60;;;;;;;9.81;48.93;99648.25;5014061;28;20123;-74
2021/09/19 10:42:25;;;;;;;32.08;8.10;;;;;;;9.90;48.87;99651.25;5024487;28;20053;-72
2021/09/19 10:44:56;;;;;;;24.38;7.38;;;;;;;9.79;48.90;99656.72;5009539;28;20441;-73
2021/09/19 10:47:29;;;;;;;25.25;6.80;;;;;;;9.90;48.67;99665.72;5048634;28;20072;-72
2021/09/19 10:50:13;;;;;;;31.13;6.88;;;;;;;9.76;48.72;99643.59;5031916;28;20045;-72
2021/09/19 10:52:40;;;;;;;21.05;7.25;;;;;;;9.85;48.70;99657.53;5047683;28;20067;-74
2021/09/19 10:55:18;;;;;;;19.27;7.30;;;;;;;9.80;48.60;99654.81;5049682;28;20046;-72
2021/09/19 10:57:54;;;;;;;46.75;8.55;;;;;;;9.81;48.75;99652.88;5037453;28;20057;-74
2021/09/19 11:00:20;;;;;;;23.40;7.57;;;;;;;9.81;48.68;99647.41;5047213;28;20500;-74
2021/09/19 11:03:04;;;;;;;28.33;8.87;;;;;;;9.83;48.50;99632.41;5029414;28;20061;-74
2021/09/19 11:05:32;;;;;;;19.33;6.13;;;;;;;9.88;48.41;99637.84;5035468;28;21699;-74
2021/09/19 11:08:10;;;;;;;25.48;8.65;;;;;;;9.89;48.16;99655.88;5022318;28;20164;-73
2021/09/19 11:10:56;;;;;;;22.45;5.80;;;;;;;9.90;47.96;99646.59;5033672;28;20628;-74
2021/09/19 11:13:27;;;;;;;34.55;7.95;;;;;;;9.95;48.21;99640.31;5035232;28;20071;-73
2021/09/19 11:16:15;;;;;;;18.83;6.80;;;;;;;9.94;48.26;99646.88;5046182;28;20048;-76
2021/09/19 11:18:44;;;;;;;18.40;6.72;;;;;;;9.89;47.93;99639.50;5031241;28;20065;-74
2021/09/19 11:21:17;;;;;;;30.77;6.53;;;;;;;9.87;48.02;99636.22;5035242;28;20056;-77
2021/09/19 11:23:52;;;;;;;28.38;7.10;;;;;;;9.55;48.13;99580.00;5052108;28;20359;-80
2021/09/19 11:26:22;;;;;;;38.90;8.63;;;;;;;9.57;48.04;99577.00;5022465;28;20136;-73
2021/09/19 11:28:50;;;;;;;;;;;;;;;9.98;48.06;99637.03;5052965;28;20061;-70
2021/09/19 11:31:17;;;;;;;28.52;8.43;;;;;;;9.97;48.24;99629.13;5035456;28;19986;-72
2021/09/19 11:33:44;;;;;;;35.00;9.15;;;;;;;9.92;48.27;99633.50;5052293;28;20057;-71
2021/09/19 11:36:14;;;;;;;29.77;10.13;;;;;;;9.88;48.35;99623.41;5034846;28;20048;-71
2021/09/19 11:38:43;;;;;;;28.90;9.07;;;;;;;9.90;48.25;99616.56;5052696;28;20080;-72
2021/09/19 11:41:10;;;;;;;28.15;8.82;;;;;;;9.98;48.20;99617.91;5053249;28;20052;-73
2021/09/19 11:43:37;;;;;;;38.15;8.80;;;;;;;9.98;48.13;99611.66;5054090;28;20063;-73